createdAt,value
2023-05-14T00:00:20.329Z,100635.38
2023-05-14T00:00:55.062Z,100631.84
2023-05-14T00:01:28.335Z,100632.63
2023-05-14T00:02:00.467Z,100638.91
2023-05-14T00:02:35.252Z,100636.50
2023-05-14T00:03:07.616Z,100636.50
2023-05-14T00:03:41.324Z,100632.16
2023-05-14T00:04:16.602Z,100630.53
2023-05-14T00:04:48.836Z,100634.34
2023-05-14T00:05:21.463Z,100641.44
2023-05-14T00:05:56.181Z,100632.75
2023-05-14T00:06:28.304Z,100627.59
2023-05-14T00:07:01.097Z,100632.25
2023-05-14T00:07:36.022Z,100632.25
2023-05-14T00:08:08.290Z,100633.34
2023-05-14T00:08:40.465Z,100635.25
2023-05-14T00:09:15.790Z,100639.13
2023-05-14T00:09:48.038Z,100632.88
2023-05-14T00:10:22.228Z,100634.78
2023-05-14T00:10:59.735Z,100636.69
2023-05-14T00:11:31.883Z,100634.06
2023-05-14T00:12:07.155Z,100641.13
2023-05-14T00:12:39.375Z,100639.00
2023-05-14T00:13:11.549Z,100637.06
2023-05-14T00:13:46.269Z,100635.47
2023-05-14T00:14:18.506Z,100642.03
2023-05-14T00:14:50.698Z,100635.47
2023-05-14T00:15:25.788Z,100638.50
2023-05-14T00:15:57.972Z,100639.59
2023-05-14T00:16:30.270Z,100643.94
2023-05-14T00:17:05.085Z,100645.84
2023-05-14T00:17:37.486Z,100644.25
2023-05-14T00:18:12.444Z,100641.50
2023-05-14T00:18:47.295Z,100644.25
2023-05-14T00:19:19.568Z,100641.50
2023-05-14T00:19:51.695Z,100637.97
2023-05-14T00:20:26.447Z,100641.50
2023-05-14T00:20:58.804Z,100636.38
2023-05-14T00:21:32.037Z,100639.13
2023-05-14T00:22:06.745Z,100644.56
2023-05-14T00:22:39.523Z,100650.31
2023-05-14T00:23:11.660Z,100644.31
2023-05-14T00:23:43.848Z,100643.84
2023-05-14T00:24:18.575Z,100654.75
2023-05-14T00:24:50.808Z,100644.94
2023-05-14T00:25:22.954Z,100649.28
2023-05-14T00:26:00.265Z,100644.66
2023-05-14T00:26:32.498Z,100644.94
2023-05-14T00:27:05.156Z,100651.72
2023-05-14T00:27:40.921Z,100648.19
2023-05-14T00:28:13.136Z,100650.59
2023-05-14T00:28:45.423Z,100637.78
2023-05-14T00:29:20.204Z,100642.94
2023-05-14T00:29:52.379Z,100645.94
2023-05-14T00:30:24.773Z,100643.22
2023-05-14T00:30:59.815Z,100650.59
2023-05-14T00:31:32.032Z,100644.31
2023-05-14T00:32:04.761Z,100644.03
2023-05-14T00:32:39.739Z,100648.38
2023-05-14T00:33:11.873Z,100647.06
2023-05-14T00:33:44.040Z,100645.94
2023-05-14T00:34:16.194Z,100651.41
2023-05-14T00:34:50.980Z,100642.41
2023-05-14T00:35:23.414Z,100650.59
2023-05-14T00:35:55.545Z,100647.88
2023-05-14T00:36:30.319Z,100650.59
2023-05-14T00:37:02.455Z,100642.41
2023-05-14T00:37:34.728Z,100650.59
2023-05-14T00:38:09.427Z,100647.06
2023-05-14T00:38:41.564Z,100650.59
2023-05-14T00:39:16.360Z,100649.50
2023-05-14T00:39:48.509Z,100646.28
2023-05-14T00:40:23.145Z,100652.50
2023-05-14T00:41:00.673Z,100646.28
2023-05-14T00:41:32.849Z,100646.28
2023-05-14T00:42:05.239Z,100645.94
2023-05-14T00:42:40.033Z,100650.59
2023-05-14T00:43:12.610Z,100654.13
2023-05-14T00:43:44.796Z,100651.41
2023-05-14T00:44:19.514Z,100651.09
2023-05-14T00:44:51.652Z,100652.22
2023-05-14T00:45:23.948Z,100654.94
2023-05-14T00:45:58.798Z,100652.22
2023-05-14T00:46:31.092Z,100654.94
2023-05-14T00:47:03.758Z,100654.66
2023-05-14T00:47:39.610Z,100654.66
2023-05-14T00:48:12.193Z,100654.66
2023-05-14T00:48:45.320Z,100649.19
2023-05-14T00:49:18.360Z,100655.47
2023-05-14T00:49:53.393Z,100653.53
2023-05-14T00:50:26.275Z,100653.03
2023-05-14T00:50:58.651Z,100650.00
2023-05-14T00:51:34.790Z,100656.28
2023-05-14T00:52:07.475Z,100653.84
2023-05-14T00:52:40.747Z,100658.19
2023-05-14T00:53:16.154Z,100653.84
2023-05-14T00:53:49.071Z,100653.03
2023-05-14T00:54:21.684Z,100649.50
2023-05-14T00:54:57.477Z,100647.56
2023-05-14T00:55:31.130Z,100645.94
2023-05-14T00:56:08.441Z,100653.03
2023-05-14T00:56:43.261Z,100647.88
2023-05-14T00:57:15.554Z,100640.81
2023-05-14T00:57:47.810Z,100646.28
2023-05-14T00:58:20.483Z,100649.50
2023-05-14T00:58:55.212Z,100649.50
2023-05-14T00:59:27.422Z,100645.94
2023-05-14T00:59:59.965Z,100645.16
2023-05-14T01:00:34.736Z,100649.19
2023-05-14T01:01:06.976Z,100647.88
2023-05-14T01:01:39.293Z,100646.75
2023-05-14T01:02:14.300Z,100650.59
2023-05-14T01:02:46.728Z,100651.72
2023-05-14T01:03:18.974Z,100649.00
2023-05-14T01:03:53.639Z,100651.41
2023-05-14T01:04:28.831Z,100649.78
2023-05-14T01:05:01.831Z,100647.38
2023-05-14T01:05:42.386Z,100655.22
2023-05-14T01:06:24.623Z,100650.09
2023-05-14T01:07:09.257Z,100649.56
2023-05-14T01:07:52.480Z,100653.41
2023-05-14T01:08:32.981Z,100649.06
2023-05-14T01:09:16.689Z,100648.25
2023-05-14T01:09:54.274Z,100657.53
2023-05-14T01:10:32.959Z,100652.06
2023-05-14T01:11:15.634Z,100648.53
2023-05-14T01:12:00.098Z,100653.97
2023-05-14T01:12:38.092Z,100649.63
2023-05-14T01:13:21.312Z,100653.97
2023-05-14T01:14:03.836Z,100653.19
2023-05-14T01:14:45.351Z,100655.91
2023-05-14T01:15:24.429Z,100653.19
2023-05-14T01:15:57.466Z,100653.97
2023-05-14T01:16:31.437Z,100656.41
2023-05-14T01:17:08.157Z,100652.31
2023-05-14T01:17:46.590Z,100658.03
2023-05-14T01:18:19.772Z,100662.69
2023-05-14T01:18:55.590Z,100659.66
2023-05-14T01:19:35.895Z,100663.19
2023-05-14T01:20:09.415Z,100656.13
2023-05-14T01:20:44.699Z,100665.63
2023-05-14T01:21:37.539Z,100658.84
2023-05-14T01:22:10.494Z,100659.66
2023-05-14T01:22:45.594Z,100666.44
2023-05-14T01:23:17.790Z,100666.44
2023-05-14T01:23:50.008Z,100662.63
2023-05-14T01:24:24.728Z,100668.56
2023-05-14T01:24:56.977Z,100663.91
2023-05-14T01:25:30.167Z,100672.63
2023-05-14T01:26:05.200Z,100669.56
2023-05-14T01:26:37.783Z,100671.47
2023-05-14T01:27:15.577Z,100664.13
2023-05-14T01:27:59.182Z,100660.91
2023-05-14T01:28:36.319Z,100671.81
2023-05-14T01:29:15.546Z,100672.63
2023-05-14T01:29:56.170Z,100672.91
2023-05-14T01:30:32.453Z,100671.28
2023-05-14T01:31:11.168Z,100665.84
2023-05-14T01:31:48.587Z,100668.84
2023-05-14T01:32:24.745Z,100664.22
2023-05-14T01:33:00.714Z,100666.13
2023-05-14T01:33:37.007Z,100660.69
2023-05-14T01:34:11.453Z,100661.50
2023-05-14T01:34:46.676Z,100665.03
2023-05-14T01:35:25.311Z,100671.28
2023-05-14T01:35:58.801Z,100664.22
2023-05-14T01:36:34.885Z,100656.84
2023-05-14T01:37:12.249Z,100664.22
2023-05-14T01:37:46.184Z,100659.91
2023-05-14T01:38:20.842Z,100656.84
2023-05-14T01:38:54.345Z,100657.66
2023-05-14T01:39:32.595Z,100652.22
2023-05-14T01:40:06.808Z,100657.66
2023-05-14T01:40:39.661Z,100654.13
2023-05-14T01:41:17.303Z,100651.09
2023-05-14T01:41:50.483Z,100649.19
2023-05-14T01:42:26.700Z,100648.88
2023-05-14T01:42:59.590Z,100645.84
2023-05-14T01:43:32.469Z,100643.66
2023-05-14T01:44:07.592Z,100644.16
2023-05-14T01:44:39.795Z,100642.53
2023-05-14T01:45:12.263Z,100638.69
2023-05-14T01:45:47.313Z,100638.69
2023-05-14T01:46:19.652Z,100638.69
2023-05-14T01:46:51.893Z,100639.50
2023-05-14T01:47:24.086Z,100629.72
2023-05-14T01:47:59.293Z,100635.16
2023-05-14T01:48:31.557Z,100631.63
2023-05-14T01:49:03.935Z,100632.75
2023-05-14T01:49:37.379Z,100621.63
2023-05-14T01:50:13.446Z,100620.34
2023-05-14T01:50:45.998Z,100623.66
2023-05-14T01:51:18.158Z,100624.47
2023-05-14T01:51:52.929Z,100620.94
2023-05-14T01:52:27.682Z,100617.41
2023-05-14T01:52:59.979Z,100610.34
2023-05-14T01:53:35.102Z,100613.06
2023-05-14T01:54:09.833Z,100613.88
2023-05-14T01:54:42.089Z,100611.22
2023-05-14T01:55:14.537Z,100621.91
2023-05-14T01:55:49.258Z,100618.09
2023-05-14T01:56:25.695Z,100618.66
2023-05-14T01:56:57.853Z,100616.53
2023-05-14T01:57:32.550Z,100615.44
2023-05-14T01:58:04.828Z,100614.63
2023-05-14T01:58:37.110Z,100606.75
2023-05-14T01:59:09.375Z,100612.19
2023-05-14T01:59:44.421Z,100599.41
2023-05-14T02:00:17.158Z,100611.09
2023-05-14T02:00:49.275Z,100619.56
2023-05-14T02:01:26.335Z,100616.84
2023-05-14T02:01:58.863Z,100619.56
2023-05-14T02:02:31.300Z,100612.19
2023-05-14T02:03:06.216Z,100607.28
2023-05-14T02:03:38.608Z,100614.31
2023-05-14T02:04:10.808Z,100617.84
2023-05-14T02:04:45.654Z,100614.84
2023-05-14T02:05:18.116Z,100618.88
2023-05-14T02:05:50.269Z,100618.38
2023-05-14T02:06:24.972Z,100616.47
2023-05-14T02:06:59.691Z,100614.84
2023-05-14T02:07:31.878Z,100615.66
2023-05-14T02:08:06.922Z,100620.81
2023-05-14T02:08:39.149Z,100611.00
2023-05-14T02:09:11.479Z,100626.25
2023-05-14T02:09:46.549Z,100623.22
2023-05-14T02:10:19.001Z,100618.09
2023-05-14T02:10:54.995Z,100621.91
2023-05-14T02:11:32.442Z,100623.00
2023-05-14T02:12:05.022Z,100620.28
2023-05-14T02:12:37.291Z,100624.09
2023-05-14T02:13:12.434Z,100618.66
2023-05-14T02:13:44.661Z,100618.97
2023-05-14T02:14:16.999Z,100622.47
2023-05-14T02:14:51.695Z,100616.53
2023-05-14T02:15:23.854Z,100617.66
2023-05-14T02:15:56.168Z,100621.47
2023-05-14T02:16:30.968Z,100619.06
2023-05-14T02:17:03.706Z,100619.38
2023-05-14T02:17:35.988Z,100624.00
2023-05-14T02:18:10.778Z,100615.00
2023-05-14T02:18:43.044Z,100617.25
2023-05-14T02:19:15.349Z,100617.25
2023-05-14T02:19:50.228Z,100618.34
2023-05-14T02:20:22.711Z,100615.09
2023-05-14T02:20:54.974Z,100619.78
2023-05-14T02:21:30.314Z,100616.25
2023-05-14T02:22:05.580Z,100620.06
2023-05-14T02:22:42.349Z,100619.53
2023-05-14T02:23:17.088Z,100619.03
2023-05-14T02:23:49.707Z,100611.16
2023-05-14T02:24:22.006Z,100622.06
2023-05-14T02:24:56.697Z,100624.78
2023-05-14T02:25:28.810Z,100619.63
2023-05-14T02:26:01.403Z,100616.63
2023-05-14T02:26:33.670Z,100610.34
2023-05-14T02:27:09.046Z,100610.97
2023-05-14T02:27:41.222Z,100625.38
2023-05-14T02:28:13.636Z,100617.50
2023-05-14T02:28:48.826Z,100617.78
2023-05-14T02:29:20.961Z,100614.28
2023-05-14T02:29:53.407Z,100615.41
2023-05-14T02:30:28.131Z,100614.56
2023-05-14T02:31:00.730Z,100617.31
2023-05-14T02:31:32.939Z,100613.78
2023-05-14T02:32:08.567Z,100614.56
2023-05-14T02:32:40.932Z,100621.94
2023-05-14T02:33:13.328Z,100617.59
2023-05-14T02:33:48.336Z,100618.41
2023-05-14T02:34:20.471Z,100618.41
2023-05-14T02:34:52.927Z,100626.56
2023-05-14T02:35:27.939Z,100623.03
2023-05-14T02:36:00.079Z,100623.03
2023-05-14T02:36:32.466Z,100623.03
2023-05-14T02:37:07.397Z,100625.75
2023-05-14T02:37:42.154Z,100628.00
2023-05-14T02:38:14.406Z,100626.38
2023-05-14T02:38:46.635Z,100631.00
2023-05-14T02:39:21.380Z,100627.47
2023-05-14T02:39:53.661Z,100626.66
2023-05-14T02:40:28.042Z,100626.16
2023-05-14T02:41:02.811Z,100626.16
2023-05-14T02:41:34.987Z,100631.09
2023-05-14T02:42:07.682Z,100629.47
2023-05-14T02:42:42.411Z,100623.22
2023-05-14T02:43:14.532Z,100630.88
2023-05-14T02:43:46.762Z,100627.34
2023-05-14T02:44:22.375Z,100623.81
2023-05-14T02:44:54.548Z,100621.41
2023-05-14T02:45:26.919Z,100622.50
2023-05-14T02:46:01.609Z,100622.78
2023-05-14T02:46:33.942Z,100617.94
2023-05-14T02:47:07.447Z,100615.22
2023-05-14T02:47:42.443Z,100615.22
2023-05-14T02:48:14.647Z,100622.88
2023-05-14T02:48:46.833Z,100620.66
2023-05-14T02:49:21.647Z,100628.84
2023-05-14T02:49:53.821Z,100621.78
2023-05-14T02:50:26.150Z,100616.03
2023-05-14T02:51:01.125Z,100615.72
2023-05-14T02:51:33.324Z,100617.34
2023-05-14T02:52:09.278Z,100620.59
2023-05-14T02:52:44.055Z,100618.69
2023-05-14T02:53:16.265Z,100619.19
2023-05-14T02:53:48.419Z,100620.50
2023-05-14T02:54:23.171Z,100620.50
2023-05-14T02:54:55.481Z,100618.28
2023-05-14T02:55:27.658Z,100620.41
2023-05-14T02:56:02.427Z,100623.66
2023-05-14T02:56:34.708Z,100615.19
2023-05-14T02:57:06.867Z,100617.59
2023-05-14T02:57:41.735Z,100617.31
2023-05-14T02:58:13.947Z,100620.53
2023-05-14T02:58:48.722Z,100613.16
2023-05-14T02:59:20.994Z,100623.47
2023-05-14T02:59:53.724Z,100619.63
2023-05-14T03:00:28.852Z,100622.56
2023-05-14T03:01:01.513Z,100616.31
2023-05-14T03:01:34.317Z,100618.72
2023-05-14T03:02:09.465Z,100614.91
2023-05-14T03:02:43.798Z,100616.53
2023-05-14T03:03:17.119Z,100625.22
2023-05-14T03:03:52.747Z,100617.81
2023-05-14T03:04:25.020Z,100617.81
2023-05-14T03:04:57.157Z,100613.19
2023-05-14T03:05:31.870Z,100617.25
2023-05-14T03:06:04.489Z,100619.97
2023-05-14T03:06:36.664Z,100619.97
2023-05-14T03:07:13.965Z,100612.63
2023-05-14T03:07:46.156Z,100610.69
2023-05-14T03:08:18.721Z,100613.41
2023-05-14T03:08:53.505Z,100614.72
2023-05-14T03:09:25.683Z,100615.81
2023-05-14T03:10:00.465Z,100612.81
2023-05-14T03:10:35.484Z,100616.03
2023-05-14T03:11:07.745Z,100609.78
2023-05-14T03:11:40.217Z,100611.38
2023-05-14T03:12:15.666Z,100614.94
2023-05-14T03:12:47.917Z,100617.66
2023-05-14T03:13:20.972Z,100613.81
2023-05-14T03:13:55.764Z,100615.44
2023-05-14T03:14:27.942Z,100618.16
2023-05-14T03:15:00.140Z,100616.25
2023-05-14T03:15:32.378Z,100614.84
2023-05-14T03:16:07.481Z,100613.72
2023-05-14T03:16:40.322Z,100616.47
2023-05-14T03:17:12.740Z,100619.19
2023-05-14T03:17:47.583Z,100611.81
2023-05-14T03:18:19.926Z,100616.94
2023-05-14T03:18:54.762Z,100618.56
2023-05-14T03:19:26.984Z,100615.84
2023-05-14T03:19:59.174Z,100618.28
2023-05-14T03:20:34.776Z,100619.91
2023-05-14T03:21:07.092Z,100616.06
2023-05-14T03:21:39.281Z,100619.63
2023-05-14T03:22:16.589Z,100624.78
2023-05-14T03:22:48.866Z,100620.41
2023-05-14T03:23:21.014Z,100615.78
2023-05-14T03:23:56.234Z,100615.50
2023-05-14T03:24:28.416Z,100620.63
2023-05-14T03:25:00.734Z,100622.25
2023-05-14T03:25:35.685Z,100614.06
2023-05-14T03:26:08.544Z,100629.31
2023-05-14T03:26:41.386Z,100619.53
2023-05-14T03:27:16.125Z,100617.59
2023-05-14T03:27:48.237Z,100623.88
2023-05-14T03:28:20.535Z,100624.97
2023-05-14T03:28:55.302Z,100624.16
2023-05-14T03:29:27.515Z,100620.41
2023-05-14T03:30:00.235Z,100621.22
2023-05-14T03:30:32.534Z,100626.69
2023-05-14T03:31:07.463Z,100633.22
2023-05-14T03:31:39.677Z,100628.59
2023-05-14T03:32:11.827Z,100632.94
2023-05-14T03:32:46.708Z,100623.97
2023-05-14T03:33:18.995Z,100632.66
2023-05-14T03:33:51.208Z,100632.66
2023-05-14T03:34:26.017Z,100630.41
2023-05-14T03:34:58.239Z,100632.03
2023-05-14T03:35:30.508Z,100631.22
2023-05-14T03:36:05.323Z,100629.03
2023-05-14T03:36:40.629Z,100633.34
2023-05-14T03:37:15.365Z,100635.78
2023-05-14T03:37:47.656Z,100634.97
2023-05-14T03:38:22.373Z,100631.94
2023-05-14T03:38:54.675Z,100628.41
2023-05-14T03:39:26.902Z,100629.22
2023-05-14T03:40:01.613Z,100627.59
2023-05-14T03:40:33.982Z,100632.44
2023-05-14T03:41:06.175Z,100626.97
2023-05-14T03:41:40.974Z,100629.41
2023-05-14T03:42:13.191Z,100628.59
2023-05-14T03:42:45.341Z,100630.22
2023-05-14T03:43:20.074Z,100633.44
2023-05-14T03:43:53.859Z,100624.16
2023-05-14T03:44:26.096Z,100625.50
2023-05-14T03:45:01.175Z,100633.34
2023-05-14T03:45:34.166Z,100624.88
2023-05-14T03:46:06.382Z,100632.16
2023-05-14T03:46:41.182Z,100622.53
2023-05-14T03:47:13.389Z,100628.22
2023-05-14T03:47:45.852Z,100621.81
2023-05-14T03:48:20.718Z,100633.78
2023-05-14T03:48:53.018Z,100629.63
2023-05-14T03:49:25.643Z,100625.69
2023-05-14T03:50:01.200Z,100632.44
2023-05-14T03:50:33.665Z,100632.94
2023-05-14T03:51:06.016Z,100633.75
2023-05-14T03:51:42.598Z,100630.22
2023-05-14T03:52:17.333Z,100631.81
2023-05-14T03:52:50.260Z,100633.75
2023-05-14T03:53:25.022Z,100627.97
2023-05-14T03:53:58.376Z,100633.13
2023-05-14T03:54:30.645Z,100637.50
2023-05-14T03:55:05.392Z,100630.13
2023-05-14T03:55:38.038Z,100629.78
2023-05-14T03:56:10.292Z,100639.31
2023-05-14T03:56:45.023Z,100636.25
2023-05-14T03:57:17.160Z,100638.69
2023-05-14T03:57:49.413Z,100638.38
2023-05-14T03:58:24.428Z,100628.78
2023-05-14T03:58:56.629Z,100629.59
2023-05-14T03:59:28.905Z,100630.38
2023-05-14T04:00:03.606Z,100632.78
2023-05-14T04:00:48.883Z,100626.84
2023-05-14T04:01:23.604Z,100627.34
2023-05-14T04:01:56.114Z,100630.88
2023-05-14T04:02:28.283Z,100620.78
2023-05-14T04:03:03.954Z,100627.84
2023-05-14T04:03:36.382Z,100624.31
2023-05-14T04:04:09.148Z,100627.84
2023-05-14T04:04:42.437Z,100624.50
2023-05-14T04:05:17.210Z,100629.66
2023-05-14T04:05:51.509Z,100624.22
2023-05-14T04:06:24.673Z,100628.22
2023-05-14T04:06:59.406Z,100629.84
2023-05-14T04:07:36.684Z,100624.91
2023-05-14T04:08:08.888Z,100628.75
2023-05-14T04:08:43.617Z,100631.19
2023-05-14T04:09:15.797Z,100627.31
2023-05-14T04:09:47.949Z,100628.97
2023-05-14T04:10:20.425Z,100624.31
2023-05-14T04:10:55.456Z,100624.03
2023-05-14T04:11:28.480Z,100631.38
2023-05-14T04:12:00.768Z,100625.59
2023-05-14T04:12:35.679Z,100633.50
2023-05-14T04:13:08.391Z,100626.13
2023-05-14T04:13:43.686Z,100632.38
2023-05-14T04:14:18.718Z,100623.91
2023-05-14T04:14:50.860Z,100631.75
2023-05-14T04:15:23.512Z,100631.47
2023-05-14T04:15:55.963Z,100631.94
2023-05-14T04:16:31.980Z,100625.72
2023-05-14T04:17:04.695Z,100625.72
2023-05-14T04:17:36.807Z,100624.56
2023-05-14T04:18:11.666Z,100630.53
2023-05-14T04:18:43.886Z,100634.38
2023-05-14T04:19:16.201Z,100630.03
2023-05-14T04:19:51.052Z,100628.94
2023-05-14T04:20:23.673Z,100628.13
2023-05-14T04:20:58.590Z,100626.19
2023-05-14T04:21:30.912Z,100628.94
2023-05-14T04:22:03.102Z,100625.09
2023-05-14T04:22:40.357Z,100625.91
2023-05-14T04:23:12.587Z,100621.25
2023-05-14T04:23:44.704Z,100626.38
2023-05-14T04:24:20.114Z,100626.09
2023-05-14T04:24:53.377Z,100624.97
2023-05-14T04:25:25.502Z,100622.25
2023-05-14T04:26:00.279Z,100620.31
2023-05-14T04:26:32.448Z,100634.44
2023-05-14T04:27:05.402Z,100627.88
2023-05-14T04:27:40.240Z,100635.78
2023-05-14T04:28:12.483Z,100631.09
2023-05-14T04:28:44.590Z,100629.97
2023-05-14T04:29:19.309Z,100632.41
2023-05-14T04:29:51.565Z,100628.88
2023-05-14T04:30:23.936Z,100631.31
2023-05-14T04:30:58.814Z,100636.75
2023-05-14T04:31:31.883Z,100632.41
2023-05-14T04:32:04.880Z,100626.97
2023-05-14T04:32:38.090Z,100626.44
2023-05-14T04:33:13.084Z,100632.41
2023-05-14T04:33:45.205Z,100630.50
2023-05-14T04:34:17.347Z,100632.91
2023-05-14T04:34:52.058Z,100632.91
2023-05-14T04:35:25.157Z,100628.25
2023-05-14T04:35:57.453Z,100627.44
2023-05-14T04:36:32.539Z,100625.22
2023-05-14T04:37:05.253Z,100621.38
2023-05-14T04:37:40.653Z,100623.47
2023-05-14T04:38:15.741Z,100627.84
2023-05-14T04:38:47.891Z,100628.31
2023-05-14T04:39:20.037Z,100634.28
2023-05-14T04:39:54.743Z,100631.72
2023-05-14T04:40:27.437Z,100625.16
2023-05-14T04:40:59.702Z,100628.41
2023-05-14T04:41:34.531Z,100625.34
2023-05-14T04:42:08.010Z,100632.13
2023-05-14T04:42:40.165Z,100627.94
2023-05-14T04:43:14.916Z,100620.28
2023-05-14T04:43:50.012Z,100632.47
2023-05-14T04:44:22.152Z,100633.28
2023-05-14T04:44:56.876Z,100633.78
2023-05-14T04:45:29.164Z,100631.53
2023-05-14T04:46:01.334Z,100632.84
2023-05-14T04:46:36.164Z,100630.91
2023-05-14T04:47:08.358Z,100625.47
2023-05-14T04:47:40.632Z,100629.81
2023-05-14T04:48:15.378Z,100633.34
2023-05-14T04:48:48.451Z,100632.53
2023-05-14T04:49:23.707Z,100625.97
2023-05-14T04:49:55.879Z,100631.91
2023-05-14T04:50:28.101Z,100630.50
2023-05-14T04:51:04.028Z,100629.06
2023-05-14T04:51:37.729Z,100630.66
2023-05-14T04:52:10.061Z,100633.09
2023-05-14T04:52:47.383Z,100631.97
2023-05-14T04:53:19.581Z,100631.97
2023-05-14T04:53:51.702Z,100632.47
2023-05-14T04:54:26.606Z,100641.16
2023-05-14T04:54:58.886Z,100636.47
2023-05-14T04:55:31.227Z,100639.72
2023-05-14T04:56:05.970Z,100636.72
2023-05-14T04:56:38.102Z,100635.56
2023-05-14T04:57:10.257Z,100636.88
2023-05-14T04:57:45.095Z,100631.13
2023-05-14T04:58:17.231Z,100638.19
2023-05-14T04:58:49.432Z,100637.88
2023-05-14T04:59:24.219Z,100632.91
2023-05-14T04:59:56.384Z,100631.78
2023-05-14T05:00:28.962Z,100633.41
2023-05-14T05:01:03.739Z,100635.81
2023-05-14T05:01:36.406Z,100638.22
2023-05-14T05:02:08.754Z,100645.31
2023-05-14T05:02:43.642Z,100634.06
2023-05-14T05:03:16.052Z,100634.88
2023-05-14T05:03:48.224Z,100637.28
2023-05-14T05:04:24.095Z,100638.09
2023-05-14T05:04:56.353Z,100637.28
2023-05-14T05:05:28.524Z,100641.63
2023-05-14T05:06:03.346Z,100638.44
2023-05-14T05:06:35.473Z,100627.50
2023-05-14T05:07:07.618Z,100640.81
2023-05-14T05:07:42.338Z,100636.47
2023-05-14T05:08:17.042Z,100637.28
2023-05-14T05:08:49.307Z,100634.53
2023-05-14T05:09:23.996Z,100626.34
2023-05-14T05:09:56.132Z,100627.97
2023-05-14T05:10:28.248Z,100631.50
2023-05-14T05:11:00.368Z,100638.09
2023-05-14T05:11:35.116Z,100642.75
2023-05-14T05:12:08.146Z,100632.16
2023-05-14T05:12:40.293Z,100637.63
2023-05-14T05:13:17.130Z,100641.16
2023-05-14T05:13:49.259Z,100636.00
2023-05-14T05:14:24.152Z,100640.66
2023-05-14T05:14:56.674Z,100640.19
2023-05-14T05:15:28.821Z,100637.44
2023-05-14T05:16:03.564Z,100633.09
2023-05-14T05:16:35.776Z,100642.41
2023-05-14T05:17:08.747Z,100632.59
2023-05-14T05:17:43.525Z,100632.59
2023-05-14T05:18:15.729Z,100644.31
2023-05-14T05:18:47.904Z,100635.00
2023-05-14T05:19:35.878Z,100632.75
2023-05-14T05:20:13.604Z,100633.22
2023-05-14T05:20:48.321Z,100637.56
2023-05-14T05:21:20.508Z,100632.09
2023-05-14T05:21:52.716Z,100636.44
2023-05-14T05:22:27.602Z,100632.59
2023-05-14T05:22:59.834Z,100628.22
2023-05-14T05:23:34.623Z,100638.84
2023-05-14T05:24:09.874Z,100633.41
2023-05-14T05:24:42.189Z,100625.19
2023-05-14T05:25:14.449Z,100635.81
2023-05-14T05:25:49.192Z,100640.19
2023-05-14T05:26:22.476Z,100638.22
2023-05-14T05:26:55.950Z,100638.22
2023-05-14T05:27:28.087Z,100630.84
2023-05-14T05:28:02.771Z,100633.91
2023-05-14T05:28:34.949Z,100630.34
2023-05-14T05:29:07.724Z,100635.50
2023-05-14T05:29:42.848Z,100637.09
2023-05-14T05:30:15.036Z,100635.19
2023-05-14T05:30:47.254Z,100634.88
2023-05-14T05:31:22.373Z,100635.69
2023-05-14T05:31:54.613Z,100634.53
2023-05-14T05:32:26.893Z,100634.53
2023-05-14T05:33:02.284Z,100636.97
2023-05-14T05:33:35.104Z,100625.22
2023-05-14T05:34:07.369Z,100631.50
2023-05-14T05:34:42.275Z,100625.75
2023-05-14T05:35:14.520Z,100632.78
2023-05-14T05:35:50.280Z,100634.75
2023-05-14T05:36:22.422Z,100628.13
2023-05-14T05:36:54.618Z,100626.22
2023-05-14T05:37:29.345Z,100630.25
2023-05-14T05:38:01.943Z,100624.81
2023-05-14T05:38:36.793Z,100626.38
2023-05-14T05:39:11.583Z,100627.19
2023-05-14T05:39:43.803Z,100633.47
2023-05-14T05:40:16.242Z,100628.81
2023-05-14T05:40:51.054Z,100635.59
2023-05-14T05:41:23.294Z,100634.78
2023-05-14T05:41:55.444Z,100628.97
2023-05-14T05:42:30.296Z,100628.97
2023-05-14T05:43:02.451Z,100628.19
2023-05-14T05:43:34.682Z,100628.69
2023-05-14T05:44:09.623Z,100634.97
2023-05-14T05:44:41.756Z,100632.22
2023-05-14T05:45:13.951Z,100625.63
2023-05-14T05:45:48.724Z,100628.84
2023-05-14T05:46:20.875Z,100634.31
2023-05-14T05:46:53.073Z,100629.66
2023-05-14T05:47:27.784Z,100632.38
2023-05-14T05:48:00.193Z,100633.19
2023-05-14T05:48:32.358Z,100629.34
2023-05-14T05:49:07.045Z,100634.00
2023-05-14T05:49:39.265Z,100636.75
2023-05-14T05:50:11.577Z,100630.97
2023-05-14T05:50:47.712Z,100635.63
2023-05-14T05:51:19.955Z,100632.09
2023-05-14T05:51:52.079Z,100630.16
2023-05-14T05:52:26.845Z,100637.22
2023-05-14T05:52:59.496Z,100630.16
2023-05-14T05:53:31.677Z,100635.63
2023-05-14T05:54:11.711Z,100632.91
2023-05-14T05:54:43.811Z,100637.56
2023-05-14T05:55:16.116Z,100638.38
2023-05-14T05:55:48.284Z,100632.91
2023-05-14T05:56:23.047Z,100637.22
2023-05-14T05:56:55.201Z,100639.16
2023-05-14T05:57:27.591Z,100639.66
2023-05-14T05:57:59.795Z,100634.19
2023-05-14T05:58:34.554Z,100625.97
2023-05-14T05:59:06.827Z,100627.91
2023-05-14T05:59:38.955Z,100641.25
2023-05-14T06:00:17.512Z,100639.00
2023-05-14T06:00:49.655Z,100635.78
2023-05-14T06:01:21.786Z,100637.41
2023-05-14T06:01:56.819Z,100640.16
2023-05-14T06:02:29.018Z,100639.81
2023-05-14T06:03:01.574Z,100640.16
2023-05-14T06:03:36.595Z,100642.53
2023-05-14T06:04:08.723Z,100639.00
2023-05-14T06:04:40.962Z,100639.81
2023-05-14T06:05:16.031Z,100641.44
2023-05-14T06:05:48.256Z,100635.16
2023-05-14T06:06:20.552Z,100632.94
2023-05-14T06:06:55.293Z,100635.66
2023-05-14T06:07:27.499Z,100638.41
2023-05-14T06:08:00.035Z,100649.34
2023-05-14T06:08:34.846Z,100638.41
2023-05-14T06:09:09.729Z,100643.06
2023-05-14T06:09:41.914Z,100637.59
2023-05-14T06:10:16.658Z,100637.59
2023-05-14T06:10:48.838Z,100643.06
2023-05-14T06:11:22.011Z,100644.66
2023-05-14T06:11:56.715Z,100640.78
2023-05-14T06:12:28.897Z,100646.25
2023-05-14T06:13:01.203Z,100643.22
2023-05-14T06:13:36.249Z,100644.84
2023-05-14T06:14:08.443Z,100643.22
2023-05-14T06:14:40.696Z,100636.31
2023-05-14T06:15:15.596Z,100639.03
2023-05-14T06:15:47.897Z,100646.13
2023-05-14T06:16:20.160Z,100643.88
2023-05-14T06:16:54.943Z,100638.41
2023-05-14T06:17:27.299Z,100647.44
2023-05-14T06:18:02.149Z,100642.44
2023-05-14T06:18:34.399Z,100641.63
2023-05-14T06:19:06.813Z,100639.69
2023-05-14T06:19:41.949Z,100635.03
2023-05-14T06:20:14.207Z,100635.84
2023-05-14T06:20:48.938Z,100641.00
2023-05-14T06:21:21.240Z,100647.28
2023-05-14T06:21:53.410Z,100643.75
2023-05-14T06:22:25.605Z,100634.41
2023-05-14T06:23:00.290Z,100641.50
2023-05-14T06:23:33.697Z,100646.66
2023-05-14T06:24:06.665Z,100643.56
2023-05-14T06:24:43.969Z,100641.66
2023-05-14T06:25:16.224Z,100641.66
2023-05-14T06:25:50.754Z,100638.63